Terminal Aerodrome Forecast
Issued by NWS

Home | Current Version | Previous Version | Text Only | Print | Product List | Glossary On
Versions: 1 2 3 4 5 6 7 8 9 10 11 12 13 14 15 16 17 18
199
FTPA31 PHFO 251725
TAFHMK
TAF
PHMK 251725Z 2518/2618 04011G18KT P6SM SCT012 BKN035
     FM252000 04016G25KT P6SM FEW020 SCT040
     FM260500 04010G16KT P6SM FEW020 SCT040
      AMD NOT SKED=

USA.gov is the U.S. government's official web portal to all federal, state and local government web resources and services.